sensor_id;sensor_type;location;lat;lon;timestamp;pressure;altitude;pressure_sealevel;temperature;humidity
2549;BME280;1284;53.520;10.248;2023-06-22T00:01:42;101246.28;;;22.41;76.26
2549;BME280;1284;53.520;10.248;2023-06-22T00:06:53;101253.56;;;22.28;77.04
2549;BME280;1284;53.520;10.248;2023-06-22T00:12:05;101242.84;;;22.14;77.27
2549;BME280;1284;53.520;10.248;2023-06-22T00:14:30;101238.84;;;21.95;78.37
2549;BME280;1284;53.520;10.248;2023-06-22T00:16:55;101238.81;;;21.99;78.71
2549;BME280;1284;53.520;10.248;2023-06-22T00:19:23;101241.50;;;22.02;78.43
2549;BME280;1284;53.520;10.248;2023-06-22T00:21:49;101244.94;;;22.06;78.48
2549;BME280;1284;53.520;10.248;2023-06-22T00:24:20;101240.56;;;22.09;78.29
2549;BME280;1284;53.520;10.248;2023-06-22T00:26:48;101239.41;;;22.10;78.58
2549;BME280;1284;53.520;10.248;2023-06-22T00:29:13;101224.97;;;22.06;78.17
2549;BME280;1284;53.520;10.248;2023-06-22T00:31:39;101231.75;;;21.98;78.24
2549;BME280;1284;53.520;10.248;2023-06-22T00:34:04;101233.19;;;21.83;79.28
2549;BME280;1284;53.520;10.248;2023-06-22T00:36:32;101234.69;;;21.87;79.36
2549;BME280;1284;53.520;10.248;2023-06-22T00:41:44;101250.31;;;21.90;79.34
2549;BME280;1284;53.520;10.248;2023-06-22T00:44:09;101255.00;;;21.90;79.54
2549;BME280;1284;53.520;10.248;2023-06-22T00:46:35;101254.56;;;21.95;79.20
2549;BME280;1284;53.520;10.248;2023-06-22T00:49:00;101257.31;;;21.95;79.18
2549;BME280;1284;53.520;10.248;2023-06-22T00:51:27;101261.22;;;21.94;79.37
2549;BME280;1284;53.520;10.248;2023-06-22T00:53:53;101261.22;;;21.94;79.41
2549;BME280;1284;53.520;10.248;2023-06-22T00:56:19;101255.31;;;21.95;79.43
2549;BME280;1284;53.520;10.248;2023-06-22T00:58:46;101256.16;;;21.92;79.57
2549;BME280;1284;53.520;10.248;2023-06-22T01:01:13;101251.81;;;21.95;79.33
2549;BME280;1284;53.520;10.248;2023-06-22T01:03:39;101248.72;;;21.93;79.95
2549;BME280;1284;53.520;10.248;2023-06-22T01:06:10;101253.41;;;21.92;79.30
2549;BME280;1284;53.520;10.248;2023-06-22T01:08:42;101257.34;;;21.91;79.19
2549;BME280;1284;53.520;10.248;2023-06-22T01:11:17;101248.44;;;21.84;79.12
2549;BME280;1284;53.520;10.248;2023-06-22T01:16:35;101256.16;;;21.66;80.06
2549;BME280;1284;53.520;10.248;2023-06-22T01:21:41;101253.66;;;21.75;79.75
2549;BME280;1284;53.520;10.248;2023-06-22T01:32:09;101240.28;;;21.53;80.05
2549;BME280;1284;53.520;10.248;2023-06-22T01:34:37;101240.78;;;21.48;80.11
2549;BME280;1284;53.520;10.248;2023-06-22T01:37:06;101244.38;;;21.42;80.96
2549;BME280;1284;53.520;10.248;2023-06-22T01:39:32;101242.25;;;21.26;81.71
2549;BME280;1284;53.520;10.248;2023-06-22T01:41:58;101235.56;;;21.27;81.78
2549;BME280;1284;53.520;10.248;2023-06-22T01:44:27;101227.34;;;21.27;81.27
2549;BME280;1284;53.520;10.248;2023-06-22T01:46:54;101240.13;;;21.37;81.36
2549;BME280;1284;53.520;10.248;2023-06-22T01:49:20;101249.38;;;21.20;81.21
2549;BME280;1284;53.520;10.248;2023-06-22T01:51:46;101239.66;;;21.16;82.07
2549;BME280;1284;53.520;10.248;2023-06-22T01:54:11;101242.81;;;21.14;82.08
2549;BME280;1284;53.520;10.248;2023-06-22T01:56:38;101248.34;;;21.11;82.64
2549;BME280;1284;53.520;10.248;2023-06-22T01:59:34;101250.22;;;21.17;82.40
2549;BME280;1284;53.520;10.248;2023-06-22T02:02:07;101242.19;;;21.30;82.16
2549;BME280;1284;53.520;10.248;2023-06-22T02:04:47;101244.22;;;21.26;81.28
2549;BME280;1284;53.520;10.248;2023-06-22T02:07:15;101247.13;;;21.12;82.08
2549;BME280;1284;53.520;10.248;2023-06-22T02:09:44;101235.91;;;21.03;82.62
2549;BME280;1284;53.520;10.248;2023-06-22T02:12:17;101235.41;;;21.11;82.25
2549;BME280;1284;53.520;10.248;2023-06-22T02:14:45;101242.38;;;21.16;82.12
2549;BME280;1284;53.520;10.248;2023-06-22T02:17:13;101241.03;;;21.01;82.30
2549;BME280;1284;53.520;10.248;2023-06-22T02:19:42;101245.75;;;20.97;82.85
2549;BME280;1284;53.520;10.248;2023-06-22T02:22:07;101241.06;;;20.97;82.91
2549;BME280;1284;53.520;10.248;2023-06-22T02:24:33;101235.94;;;20.99;82.60
2549;BME280;1284;53.520;10.248;2023-06-22T02:26:59;101241.75;;;21.05;82.40
2549;BME280;1284;53.520;10.248;2023-06-22T02:29:25;101238.25;;;21.04;81.91
2549;BME280;1284;53.520;10.248;2023-06-22T02:31:52;101234.84;;;20.93;82.20
2549;BME280;1284;53.520;10.248;2023-06-22T02:34:18;101222.56;;;20.75;83.05
2549;BME280;1284;53.520;10.248;2023-06-22T02:36:48;101217.03;;;20.78;83.17
2549;BME280;1284;53.520;10.248;2023-06-22T02:39:22;101226.88;;;20.72;82.78
2549;BME280;1284;53.520;10.248;2023-06-22T02:41:52;101217.03;;;20.78;82.53
2549;BME280;1284;53.520;10.248;2023-06-22T02:49:50;101229.81;;;20.88;81.74
2549;BME280;1284;53.520;10.248;2023-06-22T02:55:02;101236.56;;;20.80;81.26
2549;BME280;1284;53.520;10.248;2023-06-22T02:57:28;101225.47;;;20.60;82.22
2549;BME280;1284;53.520;10.248;2023-06-22T02:59:54;101229.03;;;20.57;82.75
2549;BME280;1284;53.520;10.248;2023-06-22T03:02:20;101231.72;;;20.61;82.94
2549;BME280;1284;53.520;10.248;2023-06-22T03:04:47;101232.56;;;20.54;82.59
2549;BME280;1284;53.520;10.248;2023-06-22T03:07:15;101237.25;;;20.54;82.99
2549;BME280;1284;53.520;10.248;2023-06-22T03:09:40;101235.66;;;20.56;82.79
2549;BME280;1284;53.520;10.248;2023-06-22T03:12:08;101234.81;;;20.63;82.38
2549;BME280;1284;53.520;10.248;2023-06-22T03:14:42;101233.31;;;20.58;82.09
2549;BME280;1284;53.520;10.248;2023-06-22T03:17:09;101241.09;;;20.60;82.52
2549;BME280;1284;53.520;10.248;2023-06-22T03:19:36;101238.72;;;20.62;82.44
2549;BME280;1284;53.520;10.248;2023-06-22T03:22:02;101234.09;;;20.59;81.72
2549;BME280;1284;53.520;10.248;2023-06-22T03:24:27;101230.16;;;20.60;82.22
2549;BME280;1284;53.520;10.248;2023-06-22T03:26:56;101247.34;;;20.60;81.89
2549;BME280;1284;53.520;10.248;2023-06-22T03:29:22;101232.84;;;20.63;81.95
2549;BME280;1284;53.520;10.248;2023-06-22T03:31:49;101244.28;;;20.55;82.24
2549;BME280;1284;53.520;10.248;2023-06-22T03:34:14;101250.94;;;20.54;82.22
2549;BME280;1284;53.520;10.248;2023-06-22T03:36:40;101254.84;;;20.56;82.24
2549;BME280;1284;53.520;10.248;2023-06-22T03:39:05;101246.50;;;20.67;81.89
2549;BME280;1284;53.520;10.248;2023-06-22T03:41:31;101251.16;;;20.70;81.90
2549;BME280;1284;53.520;10.248;2023-06-22T03:43:56;101252.69;;;20.75;82.08
2549;BME280;1284;53.520;10.248;2023-06-22T03:46:22;101258.25;;;20.64;81.78
2549;BME280;1284;53.520;10.248;2023-06-22T03:48:47;101264.00;;;20.39;83.27
2549;BME280;1284;53.520;10.248;2023-06-22T03:51:13;101272.13;;;20.46;83.40
2549;BME280;1284;53.520;10.248;2023-06-22T03:53:38;101269.34;;;20.50;83.27
2549;BME280;1284;53.520;10.248;2023-06-22T03:56:03;101271.38;;;20.46;83.19
2549;BME280;1284;53.520;10.248;2023-06-22T03:58:29;101279.44;;;20.60;83.65
2549;BME280;1284;53.520;10.248;2023-06-22T04:00:58;101282.66;;;20.51;82.83
2549;BME280;1284;53.520;10.248;2023-06-22T04:03:25;101277.88;;;20.59;83.04
2549;BME280;1284;53.520;10.248;2023-06-22T04:05:50;101271.09;;;20.71;82.42
2549;BME280;1284;53.520;10.248;2023-06-22T04:08:16;101276.16;;;20.72;81.37
2549;BME280;1284;53.520;10.248;2023-06-22T04:10:41;101287.94;;;20.69;81.54
2549;BME280;1284;53.520;10.248;2023-06-22T04:13:07;101292.59;;;20.72;82.26
2549;BME280;1284;53.520;10.248;2023-06-22T04:15:32;101295.66;;;20.78;82.02
2549;BME280;1284;53.520;10.248;2023-06-22T04:17:58;101296.31;;;20.89;82.18
2549;BME280;1284;53.520;10.248;2023-06-22T04:20:24;101305.25;;;20.96;81.99
2549;BME280;1284;53.520;10.248;2023-06-22T04:22:55;101307.56;;;21.01;82.17
2549;BME280;1284;53.520;10.248;2023-06-22T04:25:20;101299.25;;;21.08;81.46
2549;BME280;1284;53.520;10.248;2023-06-22T04:27:47;101295.69;;;21.11;81.53
2549;BME280;1284;53.520;10.248;2023-06-22T04:30:12;101295.22;;;21.16;81.48
2549;BME280;1284;53.520;10.248;2023-06-22T04:32:40;101294.44;;;21.16;81.43
2549;BME280;1284;53.520;10.248;2023-06-22T04:35:06;101294.31;;;21.26;81.22
2549;BME280;1284;53.520;10.248;2023-06-22T04:37:33;101296.56;;;21.35;80.73
2549;BME280;1284;53.520;10.248;2023-06-22T04:39:59;101296.50;;;21.38;80.28
2549;BME280;1284;53.520;10.248;2023-06-22T04:42:26;101286.28;;;21.42;79.05
2549;BME280;1284;53.520;10.248;2023-06-22T04:44:52;101290.13;;;21.45;78.63
2549;BME280;1284;53.520;10.248;2023-06-22T04:47:18;101286.97;;;21.50;78.29
2549;BME280;1284;53.520;10.248;2023-06-22T04:49:43;101295.94;;;21.50;78.64
2549;BME280;1284;53.520;10.248;2023-06-22T04:52:11;101297.44;;;21.55;78.45
2549;BME280;1284;53.520;10.248;2023-06-22T04:54:39;101301.66;;;21.63;78.91
2549;BME280;1284;53.520;10.248;2023-06-22T04:57:07;101295.28;;;21.70;78.95
2549;BME280;1284;53.520;10.248;2023-06-22T04:59:36;101297.63;;;21.71;79.32
2549;BME280;1284;53.520;10.248;2023-06-22T05:02:04;101295.88;;;21.84;78.78
2549;BME280;1284;53.520;10.248;2023-06-22T05:04:32;101294.25;;;21.87;78.54
2549;BME280;1284;53.520;10.248;2023-06-22T05:06:58;101293.78;;;21.92;77.76
2549;BME280;1284;53.520;10.248;2023-06-22T05:09:25;101302.94;;;21.82;77.79
2549;BME280;1284;53.520;10.248;2023-06-22T05:11:50;101301.13;;;21.98;77.13
2549;BME280;1284;53.520;10.248;2023-06-22T05:14:16;101304.31;;;21.97;77.25
2549;BME280;1284;53.520;10.248;2023-06-22T05:16:42;101303.34;;;22.07;76.77
2549;BME280;1284;53.520;10.248;2023-06-22T05:19:08;101316.59;;;22.12;76.55
2549;BME280;1284;53.520;10.248;2023-06-22T05:21:34;101309.84;;;22.16;76.51
2549;BME280;1284;53.520;10.248;2023-06-22T05:23:59;101305.13;;;22.17;75.81
2549;BME280;1284;53.520;10.248;2023-06-22T05:26:30;101310.69;;;22.36;75.77
2549;BME280;1284;53.520;10.248;2023-06-22T05:28:56;101307.25;;;22.52;75.21
2549;BME280;1284;53.520;10.248;2023-06-22T05:31:23;101310.72;;;22.79;74.20
2549;BME280;1284;53.520;10.248;2023-06-22T05:33:51;101316.00;;;22.90;72.82
2549;BME280;1284;53.520;10.248;2023-06-22T05:36:17;101320.22;;;22.94;72.03
2549;BME280;1284;53.520;10.248;2023-06-22T05:38:45;101319.75;;;22.99;72.67
2549;BME280;1284;53.520;10.248;2023-06-22T05:41:10;101309.94;;;23.18;71.88
2549;BME280;1284;53.520;10.248;2023-06-22T05:43:36;101317.97;;;23.28;72.89
2549;BME280;1284;53.520;10.248;2023-06-22T05:46:02;101314.63;;;23.57;72.21
2549;BME280;1284;53.520;10.248;2023-06-22T05:48:28;101316.69;;;23.69;71.36
2549;BME280;1284;53.520;10.248;2023-06-22T05:50:53;101305.69;;;23.69;71.13
2549;BME280;1284;53.520;10.248;2023-06-22T05:53:19;101308.41;;;23.53;70.17
2549;BME280;1284;53.520;10.248;2023-06-22T05:55:45;101318.91;;;23.58;68.75
2549;BME280;1284;53.520;10.248;2023-06-22T05:58:10;101316.50;;;23.60;68.87
2549;BME280;1284;53.520;10.248;2023-06-22T06:00:36;101313.13;;;23.52;69.88
2549;BME280;1284;53.520;10.248;2023-06-22T06:03:02;101317.72;;;23.59;69.46
2549;BME280;1284;53.520;10.248;2023-06-22T06:05:33;101317.13;;;23.83;68.72
2549;BME280;1284;53.520;10.248;2023-06-22T06:08:00;101308.97;;;23.96;68.44
2549;BME280;1284;53.520;10.248;2023-06-22T06:10:25;101312.72;;;24.05;69.42
2549;BME280;1284;53.520;10.248;2023-06-22T06:12:52;101315.03;;;24.23;68.35
2549;BME280;1284;53.520;10.248;2023-06-22T06:15:17;101316.00;;;24.45;66.59
2549;BME280;1284;53.520;10.248;2023-06-22T06:17:55;101308.63;;;24.42;65.20
2549;BME280;1284;53.520;10.248;2023-06-22T06:20:22;101310.91;;;24.60;65.84
2549;BME280;1284;53.520;10.248;2023-06-22T06:22:49;101316.91;;;24.71;65.56
2549;BME280;1284;53.520;10.248;2023-06-22T06:25:15;101312.13;;;24.87;64.78
2549;BME280;1284;53.520;10.248;2023-06-22T06:27:49;101313.47;;;24.95;66.20
2549;BME280;1284;53.520;10.248;2023-06-22T06:30:18;101305.56;;;24.97;65.72
2549;BME280;1284;53.520;10.248;2023-06-22T06:32:44;101310.31;;;24.97;64.79
2549;BME280;1284;53.520;10.248;2023-06-22T06:35:11;101303.81;;;25.03;65.64
2549;BME280;1284;53.520;10.248;2023-06-22T06:37:48;101302.50;;;25.21;65.02
2549;BME280;1284;53.520;10.248;2023-06-22T06:40:15;101315.88;;;25.35;64.74
2549;BME280;1284;53.520;10.248;2023-06-22T06:42:42;101309.84;;;25.40;64.55
2549;BME280;1284;53.520;10.248;2023-06-22T06:45:14;101298.38;;;25.54;63.39
2549;BME280;1284;53.520;10.248;2023-06-22T06:47:40;101302.38;;;25.78;63.10
2549;BME280;1284;53.520;10.248;2023-06-22T06:50:06;101303.97;;;26.01;62.51
2549;BME280;1284;53.520;10.248;2023-06-22T06:52:32;101306.53;;;26.20;62.16
2549;BME280;1284;53.520;10.248;2023-06-22T06:54:58;101300.47;;;26.13;59.55
2549;BME280;1284;53.520;10.248;2023-06-22T06:57:24;101293.91;;;26.19;59.36
2549;BME280;1284;53.520;10.248;2023-06-22T06:59:55;101295.03;;;25.97;59.55
2549;BME280;1284;53.520;10.248;2023-06-22T07:02:21;101286.88;;;25.93;60.49
2549;BME280;1284;53.520;10.248;2023-06-22T07:04:47;101296.59;;;26.10;61.11
2549;BME280;1284;53.520;10.248;2023-06-22T07:07:13;101292.56;;;26.36;61.16
2549;BME280;1284;53.520;10.248;2023-06-22T07:09:38;101298.19;;;26.67;59.91
2549;BME280;1284;53.520;10.248;2023-06-22T07:14:52;101291.50;;;26.99;57.41
2549;BME280;1284;53.520;10.248;2023-06-22T07:17:17;101299.78;;;26.99;56.77
2549;BME280;1284;53.520;10.248;2023-06-22T07:19:43;101286.19;;;26.83;56.30
2549;BME280;1284;53.520;10.248;2023-06-22T07:22:08;101293.13;;;26.87;55.94
2549;BME280;1284;53.520;10.248;2023-06-22T07:24:34;101300.56;;;26.77;57.00
2549;BME280;1284;53.520;10.248;2023-06-22T07:26:59;101303.44;;;26.87;57.51
2549;BME280;1284;53.520;10.248;2023-06-22T07:29:25;101299.41;;;26.88;57.78
2549;BME280;1284;53.520;10.248;2023-06-22T07:31:52;101293.31;;;26.71;56.00
2549;BME280;1284;53.520;10.248;2023-06-22T07:34:17;101297.06;;;26.64;57.17
2549;BME280;1284;53.520;10.248;2023-06-22T07:36:44;101297.25;;;26.48;57.26
2549;BME280;1284;53.520;10.248;2023-06-22T07:39:09;101294.06;;;26.71;57.24
2549;BME280;1284;53.520;10.248;2023-06-22T07:41:35;101305.31;;;26.99;57.46
2549;BME280;1284;53.520;10.248;2023-06-22T07:44:03;101302.50;;;27.11;56.70
2549;BME280;1284;53.520;10.248;2023-06-22T07:46:29;101311.34;;;27.28;56.74
2549;BME280;1284;53.520;10.248;2023-06-22T07:48:56;101311.31;;;27.49;57.14
2549;BME280;1284;53.520;10.248;2023-06-22T07:51:22;101305.97;;;27.55;56.76
2549;BME280;1284;53.520;10.248;2023-06-22T07:53:47;101305.25;;;27.63;55.40
2549;BME280;1284;53.520;10.248;2023-06-22T07:56:13;101308.47;;;27.62;54.09
2549;BME280;1284;53.520;10.248;2023-06-22T07:58:44;101303.81;;;27.59;54.13
2549;BME280;1284;53.520;10.248;2023-06-22T08:01:09;101308.09;;;27.51;54.87
2549;BME280;1284;53.520;10.248;2023-06-22T08:03:35;101304.97;;;27.40;55.19
2549;BME280;1284;53.520;10.248;2023-06-22T08:06:01;101306.34;;;27.35;55.28
2549;BME280;1284;53.520;10.248;2023-06-22T08:08:26;101314.06;;;27.40;54.80
2549;BME280;1284;53.520;10.248;2023-06-22T08:10:52;101304.03;;;27.34;55.81
2549;BME280;1284;53.520;10.248;2023-06-22T08:13:20;101301.00;;;27.41;55.44
2549;BME280;1284;53.520;10.248;2023-06-22T08:15:46;101306.03;;;27.64;55.44
2549;BME280;1284;53.520;10.248;2023-06-22T08:18:11;101303.59;;;27.84;55.64
2549;BME280;1284;53.520;10.248;2023-06-22T08:20:37;101304.53;;;27.90;54.15
2549;BME280;1284;53.520;10.248;2023-06-22T08:23:02;101306.03;;;28.22;53.41
2549;BME280;1284;53.520;10.248;2023-06-22T08:25:34;101300.97;;;28.29;53.12
2549;BME280;1284;53.520;10.248;2023-06-22T08:28:01;101308.50;;;28.38;53.29
2549;BME280;1284;53.520;10.248;2023-06-22T08:30:27;101309.00;;;28.55;52.66
2549;BME280;1284;53.520;10.248;2023-06-22T08:32:52;101300.22;;;28.74;51.20
2549;BME280;1284;53.520;10.248;2023-06-22T08:35:19;101298.66;;;28.91;52.26
2549;BME280;1284;53.520;10.248;2023-06-22T08:37:45;101292.41;;;29.23;51.32
2549;BME280;1284;53.520;10.248;2023-06-22T08:40:15;101296.66;;;29.42;49.97
2549;BME280;1284;53.520;10.248;2023-06-22T08:42:41;101298.03;;;29.47;51.46
2549;BME280;1284;53.520;10.248;2023-06-22T08:45:07;101295.81;;;29.60;48.99
2549;BME280;1284;53.520;10.248;2023-06-22T08:47:32;101291.38;;;29.03;49.79
2549;BME280;1284;53.520;10.248;2023-06-22T08:49:58;101301.63;;;29.38;49.64
2549;BME280;1284;53.520;10.248;2023-06-22T08:52:24;101305.22;;;29.63;49.43
2549;BME280;1284;53.520;10.248;2023-06-22T08:54:49;101289.97;;;29.58;46.30
2549;BME280;1284;53.520;10.248;2023-06-22T08:57:15;101287.44;;;29.78;47.55
2549;BME280;1284;53.520;10.248;2023-06-22T08:59:42;101284.59;;;29.87;47.38
2549;BME280;1284;53.520;10.248;2023-06-22T09:02:07;101271.94;;;29.86;46.98
2549;BME280;1284;53.520;10.248;2023-06-22T09:04:33;101281.59;;;29.67;47.75
2549;BME280;1284;53.520;10.248;2023-06-22T09:07:03;101276.97;;;29.73;48.23
2549;BME280;1284;53.520;10.248;2023-06-22T09:09:29;101279.63;;;29.59;48.73
2549;BME280;1284;53.520;10.248;2023-06-22T09:11:54;101283.59;;;29.67;48.95
2549;BME280;1284;53.520;10.248;2023-06-22T09:14:20;101277.66;;;29.50;48.92
2549;BME280;1284;53.520;10.248;2023-06-22T09:16:45;101269.03;;;29.48;48.96
2549;BME280;1284;53.520;10.248;2023-06-22T09:19:11;101272.56;;;29.58;48.01
2549;BME280;1284;53.520;10.248;2023-06-22T09:21:37;101268.91;;;29.75;47.78
2549;BME280;1284;53.520;10.248;2023-06-22T09:24:03;101269.41;;;29.97;48.43
2549;BME280;1284;53.520;10.248;2023-06-22T09:26:29;101269.34;;;30.30;48.16
2549;BME280;1284;53.520;10.248;2023-06-22T09:28:54;101265.16;;;30.49;47.79
2549;BME280;1284;53.520;10.248;2023-06-22T09:31:20;101260.56;;;30.61;46.58
2549;BME280;1284;53.520;10.248;2023-06-22T09:33:54;101260.91;;;30.92;47.38
2549;BME280;1284;53.520;10.248;2023-06-22T09:36:23;101258.97;;;31.13;46.20
2549;BME280;1284;53.520;10.248;2023-06-22T09:38:52;101257.22;;;31.30;45.64
2549;BME280;1284;53.520;10.248;2023-06-22T09:41:21;101255.28;;;31.50;44.26
2549;BME280;1284;53.520;10.248;2023-06-22T09:43:47;101245.56;;;31.46;45.37
2549;BME280;1284;53.520;10.248;2023-06-22T09:46:15;101241.94;;;31.74;46.02
2549;BME280;1284;53.520;10.248;2023-06-22T09:48:40;101247.34;;;31.63;45.69
2549;BME280;1284;53.520;10.248;2023-06-22T09:51:06;101251.31;;;31.77;45.83
2549;BME280;1284;53.520;10.248;2023-06-22T09:53:31;101246.25;;;31.75;44.40
2549;BME280;1284;53.520;10.248;2023-06-22T09:55:57;101244.88;;;31.85;44.79
2549;BME280;1284;53.520;10.248;2023-06-22T09:58:23;101247.59;;;32.00;44.82
2549;BME280;1284;53.520;10.248;2023-06-22T10:00:48;101242.88;;;31.37;43.79
2549;BME280;1284;53.520;10.248;2023-06-22T10:03:14;101248.47;;;31.71;43.69
2549;BME280;1284;53.520;10.248;2023-06-22T10:05:39;101237.84;;;31.55;43.56
2549;BME280;1284;53.520;10.248;2023-06-22T10:08:05;101230.16;;;30.57;45.40
2549;BME280;1284;53.520;10.248;2023-06-22T10:10:30;101229.72;;;31.02;46.08
2549;BME280;1284;53.520;10.248;2023-06-22T10:12:57;101225.38;;;31.01;45.49
2549;BME280;1284;53.520;10.248;2023-06-22T10:15:23;101230.25;;;31.21;45.15
2549;BME280;1284;53.520;10.248;2023-06-22T10:17:51;101224.38;;;31.19;45.00
2549;BME280;1284;53.520;10.248;2023-06-22T10:20:16;101222.81;;;31.33;44.95
2549;BME280;1284;53.520;10.248;2023-06-22T10:22:44;101224.56;;;31.45;45.17
2549;BME280;1284;53.520;10.248;2023-06-22T10:25:11;101229.50;;;31.55;45.19
2549;BME280;1284;53.520;10.248;2023-06-22T10:27:37;101228.91;;;31.86;44.33
2549;BME280;1284;53.520;10.248;2023-06-22T10:30:06;101224.75;;;31.61;43.79
2549;BME280;1284;53.520;10.248;2023-06-22T10:32:32;101218.81;;;31.68;44.14
2549;BME280;1284;53.520;10.248;2023-06-22T10:34:58;101220.50;;;32.01;44.87
2549;BME280;1284;53.520;10.248;2023-06-22T10:37:23;101206.75;;;31.57;44.33
2549;BME280;1284;53.520;10.248;2023-06-22T10:42:35;101211.06;;;32.18;44.09
2549;BME280;1284;53.520;10.248;2023-06-22T10:45:01;101202.75;;;32.24;44.42
2549;BME280;1284;53.520;10.248;2023-06-22T10:47:26;101192.94;;;32.54;43.45
2549;BME280;1284;53.520;10.248;2023-06-22T10:49:54;101192.25;;;32.39;43.60
2549;BME280;1284;53.520;10.248;2023-06-22T10:52:20;101193.75;;;32.60;44.13
2549;BME280;1284;53.520;10.248;2023-06-22T10:54:45;101195.28;;;32.61;42.81
2549;BME280;1284;53.520;10.248;2023-06-22T10:57:11;101193.19;;;32.87;43.85
2549;BME280;1284;53.520;10.248;2023-06-22T10:59:36;101197.63;;;33.36;43.66
2549;BME280;1284;53.520;10.248;2023-06-22T11:02:02;101189.75;;;33.34;42.47
2549;BME280;1284;53.520;10.248;2023-06-22T11:04:27;101185.19;;;33.37;42.92
2549;BME280;1284;53.520;10.248;2023-06-22T11:06:53;101181.72;;;33.47;43.03
2549;BME280;1284;53.520;10.248;2023-06-22T11:09:18;101182.25;;;33.51;42.52
2549;BME280;1284;53.520;10.248;2023-06-22T11:11:50;101170.38;;;33.67;42.92
2549;BME280;1284;53.520;10.248;2023-06-22T11:14:16;101176.06;;;33.42;43.41
2549;BME280;1284;53.520;10.248;2023-06-22T11:16:42;101173.41;;;33.58;42.90
2549;BME280;1284;53.520;10.248;2023-06-22T11:19:35;101178.22;;;33.16;42.17
2549;BME280;1284;53.520;10.248;2023-06-22T11:22:01;101172.34;;;33.08;41.96
2549;BME280;1284;53.520;10.248;2023-06-22T11:24:27;101165.72;;;33.06;42.92
2549;BME280;1284;53.520;10.248;2023-06-22T11:26:52;101167.09;;;33.21;43.65
2549;BME280;1284;53.520;10.248;2023-06-22T11:29:18;101166.59;;;33.28;43.22
2549;BME280;1284;53.520;10.248;2023-06-22T11:31:43;101159.44;;;33.58;42.95
2549;BME280;1284;53.520;10.248;2023-06-22T11:34:09;101161.94;;;32.83;41.80
2549;BME280;1284;53.520;10.248;2023-06-22T11:36:34;101157.84;;;32.73;43.41
2549;BME280;1284;53.520;10.248;2023-06-22T11:39:01;101156.91;;;32.87;43.76
2549;BME280;1284;53.520;10.248;2023-06-22T11:41:26;101156.81;;;33.07;42.72
2549;BME280;1284;53.520;10.248;2023-06-22T11:43:52;101152.31;;;32.84;43.68
2549;BME280;1284;53.520;10.248;2023-06-22T11:46:17;101163.31;;;32.62;44.27
2549;BME280;1284;53.520;10.248;2023-06-22T11:48:43;101154.53;;;32.74;44.28
2549;BME280;1284;53.520;10.248;2023-06-22T11:51:08;101151.13;;;32.91;44.68
2549;BME280;1284;53.520;10.248;2023-06-22T11:53:34;101146.53;;;32.93;43.01
2549;BME280;1284;53.520;10.248;2023-06-22T11:56:00;101144.59;;;32.99;43.42
2549;BME280;1284;53.520;10.248;2023-06-22T11:58:26;101149.03;;;33.22;44.48
2549;BME280;1284;53.520;10.248;2023-06-22T12:00:51;101143.06;;;33.46;43.94
2549;BME280;1284;53.520;10.248;2023-06-22T12:03:18;101140.69;;;33.76;43.70
2549;BME280;1284;53.520;10.248;2023-06-22T12:05:43;101133.34;;;33.84;42.35
2549;BME280;1284;53.520;10.248;2023-06-22T12:08:09;101126.72;;;33.92;42.07
2549;BME280;1284;53.520;10.248;2023-06-22T12:10:34;101128.81;;;33.97;41.91
2549;BME280;1284;53.520;10.248;2023-06-22T12:13:00;101122.38;;;33.80;42.52
2549;BME280;1284;53.520;10.248;2023-06-22T12:15:26;101117.00;;;33.65;42.71
2549;BME280;1284;53.520;10.248;2023-06-22T12:17:52;101111.91;;;33.64;43.15
2549;BME280;1284;53.520;10.248;2023-06-22T12:20:18;101111.19;;;33.21;43.46
2549;BME280;1284;53.520;10.248;2023-06-22T12:22:43;101108.41;;;33.21;43.70
2549;BME280;1284;53.520;10.248;2023-06-22T12:25:09;101104.66;;;33.35;43.57
2549;BME280;1284;53.520;10.248;2023-06-22T12:27:35;101103.22;;;33.51;43.76
2549;BME280;1284;53.520;10.248;2023-06-22T12:32:47;101099.19;;;33.57;42.46
2549;BME280;1284;53.520;10.248;2023-06-22T12:35:13;101098.84;;;33.44;43.63
2549;BME280;1284;53.520;10.248;2023-06-22T12:37:42;101099.03;;;33.30;43.44
2549;BME280;1284;53.520;10.248;2023-06-22T12:40:08;101091.88;;;33.18;44.30
2549;BME280;1284;53.520;10.248;2023-06-22T12:42:34;101086.19;;;33.01;44.45
2549;BME280;1284;53.520;10.248;2023-06-22T12:45:00;101085.59;;;32.86;44.67
2549;BME280;1284;53.520;10.248;2023-06-22T12:47:25;101086.94;;;32.96;43.34
2549;BME280;1284;53.520;10.248;2023-06-22T12:49:50;101084.81;;;32.85;43.97
2549;BME280;1284;53.520;10.248;2023-06-22T12:52:16;101085.84;;;32.88;44.21
2549;BME280;1284;53.520;10.248;2023-06-22T12:54:41;101086.19;;;32.96;44.13
2549;BME280;1284;53.520;10.248;2023-06-22T12:57:07;101071.09;;;32.45;43.56
2549;BME280;1284;53.520;10.248;2023-06-22T12:59:32;101078.59;;;32.34;44.56
2549;BME280;1284;53.520;10.248;2023-06-22T13:01:58;101074.94;;;32.48;44.52
2549;BME280;1284;53.520;10.248;2023-06-22T13:04:23;101072.28;;;32.39;43.98
2549;BME280;1284;53.520;10.248;2023-06-22T13:06:49;101062.16;;;32.41;44.88
2549;BME280;1284;53.520;10.248;2023-06-22T13:09:15;101062.66;;;32.40;44.33
2549;BME280;1284;53.520;10.248;2023-06-22T13:11:41;101063.78;;;32.22;44.38
2549;BME280;1284;53.520;10.248;2023-06-22T13:14:07;101063.19;;;32.13;45.11
2549;BME280;1284;53.520;10.248;2023-06-22T13:16:32;101064.31;;;32.26;45.40
2549;BME280;1284;53.520;10.248;2023-06-22T13:18:58;101064.00;;;32.19;46.27
2549;BME280;1284;53.520;10.248;2023-06-22T13:21:23;101074.25;;;32.02;46.25
2549;BME280;1284;53.520;10.248;2023-06-22T13:23:48;101063.91;;;32.08;45.79
2549;BME280;1284;53.520;10.248;2023-06-22T13:26:14;101064.72;;;31.88;46.14
2549;BME280;1284;53.520;10.248;2023-06-22T13:28:39;101070.69;;;32.01;46.87
2549;BME280;1284;53.520;10.248;2023-06-22T13:31:05;101061.38;;;32.10;45.35
2549;BME280;1284;53.520;10.248;2023-06-22T13:33:30;101066.69;;;32.08;46.25
2549;BME280;1284;53.520;10.248;2023-06-22T13:35:56;101059.72;;;31.92;47.14